createdAt,value
2023-04-27T00:00:28.576Z,7.80
2023-04-27T00:03:19.828Z,7.70
2023-04-27T00:06:11.232Z,7.70
2023-04-27T00:08:59.797Z,7.60
2023-04-27T00:11:47.524Z,7.60
2023-04-27T00:14:34.988Z,7.60
2023-04-27T00:17:27.049Z,7.60
2023-04-27T00:20:17.035Z,7.50
2023-04-27T00:23:07.390Z,7.50
2023-04-27T00:25:54.976Z,7.50
2023-04-27T00:28:42.486Z,7.50
2023-04-27T00:31:33.262Z,7.50
2023-04-27T00:34:22.732Z,7.50
2023-04-27T00:37:10.170Z,7.60
2023-04-27T00:40:03.252Z,7.60
2023-04-27T00:42:53.656Z,7.60
2023-04-27T00:45:44.369Z,7.60
2023-04-27T00:48:33.771Z,7.60
2023-04-27T00:51:22.700Z,7.60
2023-04-27T00:54:11.223Z,7.60
2023-04-27T00:57:00.896Z,7.60
2023-04-27T00:59:49.058Z,7.70
2023-04-27T01:02:37.452Z,7.70
2023-04-27T01:05:31.324Z,7.70
2023-04-27T01:08:24.843Z,7.70
2023-04-27T01:11:12.522Z,7.70
2023-04-27T01:14:04.525Z,7.70
2023-04-27T01:16:53.422Z,7.70
2023-04-27T01:19:40.981Z,7.80
2023-04-27T01:22:30.948Z,7.80
2023-04-27T01:25:21.258Z,7.70
2023-04-27T01:28:09.132Z,7.70
2023-04-27T01:30:57.937Z,7.80
2023-04-27T01:33:46.494Z,7.70
2023-04-27T01:36:37.422Z,7.70
2023-04-27T01:39:26.298Z,7.70
2023-04-27T01:42:17.335Z,7.70
2023-04-27T01:45:08.655Z,7.70
2023-04-27T01:47:58.336Z,7.70
2023-04-27T01:50:46.111Z,7.70
2023-04-27T01:53:33.746Z,7.70
2023-04-27T01:56:21.330Z,7.70
2023-04-27T01:59:10.312Z,7.70
2023-04-27T02:02:00.509Z,7.70
2023-04-27T02:04:52.171Z,7.60
2023-04-27T02:07:40.189Z,7.60
2023-04-27T02:10:29.464Z,7.60
2023-04-27T02:13:17.404Z,7.50
2023-04-27T02:16:06.898Z,7.40
2023-04-27T02:18:57.448Z,7.30
2023-04-27T02:21:51.346Z,7.20
2023-04-27T02:24:38.932Z,7.10
2023-04-27T02:27:26.596Z,7.00
2023-04-27T02:30:15.579Z,7.00
2023-04-27T02:33:06.623Z,6.90
2023-04-27T02:35:55.089Z,6.90
2023-04-27T02:38:42.696Z,6.80
2023-04-27T02:41:36.446Z,6.70
2023-04-27T02:44:23.860Z,6.70
2023-04-27T02:47:13.853Z,6.60
2023-04-27T02:50:07.960Z,6.50
2023-04-27T02:53:03.085Z,6.50
2023-04-27T02:55:50.950Z,6.40
2023-04-27T02:58:41.064Z,6.40
2023-04-27T03:01:30.640Z,6.30
2023-04-27T03:04:24.198Z,6.20
2023-04-27T03:07:16.146Z,6.20
2023-04-27T03:10:06.381Z,6.20
2023-04-27T03:12:57.825Z,6.20
2023-04-27T03:15:48.347Z,6.10
2023-04-27T03:18:36.134Z,6.10
2023-04-27T03:21:29.410Z,6.10
2023-04-27T03:24:18.646Z,6.10
2023-04-27T03:27:08.577Z,6.10
2023-04-27T03:29:56.352Z,6.10
2023-04-27T03:32:47.768Z,6.10
2023-04-27T03:35:35.463Z,6.20
2023-04-27T03:38:22.789Z,6.30
2023-04-27T03:41:11.837Z,6.30
2023-04-27T03:43:58.818Z,6.40
2023-04-27T03:46:46.162Z,6.40
2023-04-27T03:49:33.297Z,6.50
2023-04-27T03:52:20.246Z,6.50
2023-04-27T03:55:08.447Z,6.50
2023-04-27T03:57:57.185Z,6.60
2023-04-27T04:00:44.040Z,6.60
2023-04-27T04:03:32.081Z,6.60
2023-04-27T04:06:20.113Z,6.60
2023-04-27T04:09:10.705Z,6.60
2023-04-27T04:12:02.248Z,6.70
2023-04-27T04:14:51.660Z,6.70
2023-04-27T04:17:39.562Z,6.70
2023-04-27T04:20:27.908Z,6.80
2023-04-27T04:23:17.446Z,6.80
2023-04-27T04:26:05.230Z,6.80
2023-04-27T04:28:56.276Z,6.90
2023-04-27T04:31:48.129Z,6.90
2023-04-27T04:34:35.814Z,6.90
2023-04-27T04:37:24.755Z,7.00
2023-04-27T04:40:15.332Z,7.10
2023-04-27T04:43:04.195Z,7.10
2023-04-27T04:45:52.761Z,7.20
2023-04-27T04:48:44.022Z,7.20
2023-04-27T04:51:35.378Z,7.30
2023-04-27T04:54:23.238Z,7.30
2023-04-27T04:57:10.917Z,7.40
2023-04-27T05:00:00.111Z,7.40
2023-04-27T05:05:38.790Z,7.50
2023-04-27T05:08:28.135Z,7.60
2023-04-27T05:11:15.687Z,7.70
2023-04-27T05:14:06.704Z,7.70
2023-04-27T05:16:56.860Z,7.80
2023-04-27T05:19:44.889Z,7.80
2023-04-27T05:22:37.730Z,7.90
2023-04-27T05:25:31.434Z,8.00
2023-04-27T05:28:19.564Z,8.10
2023-04-27T05:31:15.737Z,8.20
2023-04-27T05:34:03.135Z,8.30
2023-04-27T05:36:50.026Z,8.40
2023-04-27T05:39:38.813Z,8.50
2023-04-27T05:42:26.011Z,8.60
2023-04-27T05:45:13.486Z,8.70
2023-04-27T05:48:00.748Z,8.90
2023-04-27T05:50:48.342Z,9.00
2023-04-27T05:53:36.180Z,9.10
2023-04-27T05:56:25.116Z,9.20
2023-04-27T05:59:14.823Z,9.20
2023-04-27T06:02:09.056Z,9.20
2023-04-27T06:04:56.268Z,9.30
2023-04-27T06:07:44.211Z,9.40
2023-04-27T06:10:31.372Z,9.50
2023-04-27T06:13:20.565Z,9.60
2023-04-27T06:16:08.311Z,9.60
2023-04-27T06:18:55.711Z,9.80
2023-04-27T06:21:44.596Z,9.90
2023-04-27T06:24:32.207Z,10.00
2023-04-27T06:27:19.686Z,10.10
2023-04-27T06:30:09.390Z,10.20
2023-04-27T06:32:56.763Z,10.30
2023-04-27T06:35:46.482Z,10.30
2023-04-27T06:38:34.476Z,10.40
2023-04-27T06:41:21.804Z,10.50
2023-04-27T06:44:09.136Z,10.60
2023-04-27T06:46:57.821Z,10.60
2023-04-27T06:49:44.821Z,10.70
2023-04-27T06:52:34.395Z,10.80
2023-04-27T06:55:22.044Z,10.90
2023-04-27T06:58:09.328Z,11.00
2023-04-27T07:00:56.529Z,11.10
2023-04-27T07:03:45.292Z,11.20
2023-04-27T07:06:33.594Z,11.30
2023-04-27T07:12:14.275Z,11.60
2023-04-27T07:15:02.961Z,11.70
2023-04-27T07:17:50.579Z,11.70
2023-04-27T07:20:42.563Z,11.80
2023-04-27T07:23:30.620Z,11.80
2023-04-27T07:26:18.637Z,12.00
2023-04-27T07:29:18.792Z,12.10
2023-04-27T07:32:11.583Z,12.30
2023-04-27T07:34:59.734Z,12.40
2023-04-27T07:37:48.600Z,12.50
2023-04-27T07:40:37.028Z,12.70
2023-04-27T07:43:25.838Z,12.90
2023-04-27T07:46:13.167Z,13.00
2023-04-27T07:49:01.145Z,13.00
2023-04-27T07:51:48.566Z,13.00
2023-04-27T07:54:37.175Z,13.20
2023-04-27T07:57:24.016Z,13.20
2023-04-27T08:00:13.366Z,13.30
2023-04-27T08:03:01.122Z,13.30
2023-04-27T08:05:48.831Z,13.40
2023-04-27T08:08:36.512Z,13.50
2023-04-27T08:11:25.527Z,13.70
2023-04-27T08:14:13.898Z,14.00
2023-04-27T08:17:01.591Z,14.20
2023-04-27T08:19:49.467Z,14.60
2023-04-27T08:22:37.506Z,14.90
2023-04-27T08:25:25.255Z,15.20
2023-04-27T08:28:14.602Z,15.40
2023-04-27T08:31:02.078Z,15.50
2023-04-27T08:33:49.478Z,15.60
2023-04-27T08:36:36.350Z,15.80
2023-04-27T08:39:24.299Z,16.10
2023-04-27T08:42:12.882Z,16.50
2023-04-27T08:45:01.200Z,16.70
2023-04-27T08:47:48.106Z,16.90
2023-04-27T08:50:37.616Z,17.30
2023-04-27T08:53:25.873Z,17.50
2023-04-27T08:56:13.889Z,18.40
2023-04-27T08:59:04.914Z,18.80
2023-04-27T09:01:53.970Z,19.80
2023-04-27T09:04:42.009Z,20.00
2023-04-27T09:07:29.488Z,20.30
2023-04-27T09:10:17.492Z,20.50
2023-04-27T09:13:05.010Z,20.80
2023-04-27T09:15:53.417Z,21.20
2023-04-27T09:18:44.604Z,21.70
2023-04-27T09:21:32.710Z,22.20
2023-04-27T09:27:09.935Z,23.70
2023-04-27T09:29:58.073Z,24.90
2023-04-27T09:32:54.051Z,26.10
2023-04-27T09:35:47.235Z,26.40
2023-04-27T09:49:55.803Z,26.20
2023-04-27T09:52:47.360Z,26.20
2023-04-27T09:55:39.754Z,26.00
2023-04-27T09:58:45.582Z,25.90
2023-04-27T10:01:42.354Z,26.10
2023-04-27T10:04:47.954Z,25.50
2023-04-27T10:07:36.827Z,24.80
2023-04-27T10:10:26.350Z,24.10
2023-04-27T10:13:27.837Z,23.50
2023-04-27T10:16:19.445Z,22.80
2023-04-27T10:19:12.237Z,22.20
2023-04-27T10:22:03.983Z,21.70
2023-04-27T10:24:53.532Z,21.40
2023-04-27T10:27:43.046Z,21.20
2023-04-27T10:30:39.091Z,21.00
2023-04-27T10:33:27.063Z,21.10
2023-04-27T10:36:20.455Z,21.00
2023-04-27T10:39:30.068Z,20.90
2023-04-27T10:42:29.970Z,20.70
2023-04-27T10:45:31.494Z,20.40
2023-04-27T10:48:23.815Z,20.30
2023-04-27T10:51:11.936Z,20.20
2023-04-27T10:54:05.624Z,20.10
2023-04-27T10:56:54.796Z,20.00
2023-04-27T10:59:55.710Z,19.90
2023-04-27T11:02:47.373Z,19.80
2023-04-27T11:05:36.407Z,19.80
2023-04-27T11:08:24.647Z,19.70
2023-04-27T11:11:17.152Z,19.60
2023-04-27T11:14:10.754Z,19.60
2023-04-27T11:16:59.947Z,19.50
2023-04-27T11:19:51.598Z,19.50
2023-04-27T11:22:55.886Z,19.50
2023-04-27T11:25:46.706Z,19.60
2023-04-27T11:28:37.618Z,19.60
2023-04-27T11:31:30.355Z,19.50
2023-04-27T11:34:23.104Z,19.50
2023-04-27T11:37:23.139Z,19.60
2023-04-27T11:40:21.527Z,19.50
2023-04-27T11:43:14.888Z,19.70
2023-04-27T11:46:10.872Z,19.80
2023-04-27T11:49:04.589Z,20.10
2023-04-27T11:51:52.323Z,20.30
2023-04-27T11:54:41.566Z,20.50
2023-04-27T11:57:31.218Z,20.70
2023-04-27T12:00:22.813Z,20.90
2023-04-27T12:03:11.093Z,21.00
2023-04-27T12:06:27.781Z,21.00
2023-04-27T12:09:17.820Z,21.00
2023-04-27T12:12:11.534Z,21.00
2023-04-27T12:14:59.365Z,21.00
2023-04-27T12:17:48.236Z,21.10
2023-04-27T12:20:40.713Z,21.10
2023-04-27T12:23:29.125Z,21.10
2023-04-27T12:26:16.907Z,21.00
2023-04-27T12:29:06.068Z,20.90
2023-04-27T12:31:54.236Z,20.90
2023-04-27T12:34:43.176Z,20.80
2023-04-27T12:37:31.362Z,20.90
2023-04-27T12:40:20.783Z,21.00
2023-04-27T12:43:10.127Z,21.20
2023-04-27T12:45:59.252Z,21.20
2023-04-27T12:48:47.869Z,21.20
2023-04-27T12:51:36.028Z,21.30
2023-04-27T12:54:23.556Z,21.30
2023-04-27T12:57:12.616Z,21.10
2023-04-27T13:00:05.842Z,21.00
2023-04-27T13:02:55.671Z,20.90
2023-04-27T13:05:44.631Z,20.70
2023-04-27T13:08:32.943Z,20.50
2023-04-27T13:11:21.232Z,20.20
2023-04-27T13:14:13.118Z,20.10
2023-04-27T13:17:02.380Z,20.00
2023-04-27T13:19:53.878Z,19.80
2023-04-27T13:22:42.611Z,19.70
2023-04-27T13:25:30.458Z,19.80
2023-04-27T13:28:18.317Z,20.00
2023-04-27T13:31:06.343Z,20.10
2023-04-27T13:33:54.955Z,20.10
2023-04-27T13:36:47.822Z,20.10
2023-04-27T13:39:39.815Z,20.20
2023-04-27T13:42:29.789Z,20.50
2023-04-27T13:45:18.985Z,20.70
2023-04-27T13:48:09.763Z,21.00
2023-04-27T13:50:58.385Z,21.20
2023-04-27T13:53:47.706Z,21.30
2023-04-27T13:56:35.794Z,21.40
2023-04-27T13:59:23.828Z,21.50
2023-04-27T14:02:31.001Z,21.50
2023-04-27T14:05:19.354Z,21.30
2023-04-27T14:08:11.570Z,21.30
2023-04-27T14:11:05.002Z,21.10
2023-04-27T14:13:57.793Z,20.90
2023-04-27T14:16:48.947Z,20.80
2023-04-27T14:19:42.840Z,20.70
2023-04-27T14:22:31.864Z,20.70
2023-04-27T14:25:27.920Z,20.70
2023-04-27T14:28:24.976Z,20.60
2023-04-27T14:31:13.077Z,20.70
2023-04-27T14:34:03.082Z,20.80
2023-04-27T14:36:53.226Z,20.70
2023-04-27T14:39:45.276Z,20.80
2023-04-27T14:42:34.084Z,20.80
2023-04-27T14:45:24.845Z,20.70
2023-04-27T14:48:19.186Z,20.70
2023-04-27T14:51:10.123Z,20.50
2023-04-27T14:53:58.539Z,20.40
2023-04-27T14:56:49.534Z,20.30
2023-04-27T14:59:43.192Z,20.20
2023-04-27T15:02:34.768Z,20.30
2023-04-27T15:05:25.219Z,20.40
2023-04-27T15:08:13.778Z,20.40
2023-04-27T15:11:05.870Z,20.40
2023-04-27T15:13:58.229Z,20.40
2023-04-27T15:16:46.324Z,20.40
2023-04-27T15:19:35.801Z,20.30
2023-04-27T15:22:23.986Z,20.20
2023-04-27T15:25:11.703Z,20.20
2023-04-27T15:28:01.529Z,20.10
2023-04-27T15:30:49.499Z,19.90
2023-04-27T15:33:36.544Z,19.70
2023-04-27T15:36:27.074Z,19.60
2023-04-27T15:39:14.391Z,19.40
2023-04-27T15:42:03.232Z,19.40
2023-04-27T15:44:51.098Z,19.30
2023-04-27T15:47:38.702Z,19.10
2023-04-27T15:50:26.136Z,19.00
2023-04-27T15:53:15.051Z,19.00
2023-04-27T15:56:04.997Z,18.90
2023-04-27T15:58:53.254Z,18.90
2023-04-27T16:01:42.573Z,18.80
2023-04-27T16:04:53.392Z,18.80
2023-04-27T16:08:03.224Z,18.80
2023-04-27T16:11:21.592Z,18.80
2023-04-27T16:14:23.257Z,18.80
2023-04-27T16:17:26.987Z,18.90
2023-04-27T16:20:36.535Z,18.80
2023-04-27T16:23:29.006Z,18.70
2023-04-27T16:26:19.426Z,18.70
2023-04-27T16:29:10.714Z,18.70
2023-04-27T16:31:58.604Z,18.70
2023-04-27T16:34:46.492Z,18.80
2023-04-27T16:37:37.327Z,18.70
2023-04-27T16:40:27.110Z,18.70
2023-04-27T16:43:17.295Z,18.70
2023-04-27T16:46:06.827Z,18.60
2023-04-27T16:48:54.579Z,18.60
2023-04-27T16:51:42.654Z,18.60
2023-04-27T16:54:30.876Z,18.60
2023-04-27T16:57:19.007Z,18.40
2023-04-27T17:00:10.319Z,18.40
2023-04-27T17:03:01.010Z,18.30
2023-04-27T17:05:53.561Z,18.00
2023-04-27T17:08:46.950Z,17.70
2023-04-27T17:11:35.207Z,17.40
2023-04-27T17:14:24.825Z,17.20
2023-04-27T17:17:14.046Z,17.10
2023-04-27T17:20:02.281Z,17.00
2023-04-27T17:22:52.955Z,17.00
2023-04-27T17:25:41.881Z,16.90
2023-04-27T17:28:35.686Z,16.90
2023-04-27T17:31:24.041Z,16.80
2023-04-27T17:34:16.257Z,16.80
2023-04-27T17:37:07.839Z,16.70
2023-04-27T17:39:58.019Z,16.50
2023-04-27T17:42:53.969Z,16.40
2023-04-27T17:45:41.993Z,16.30
2023-04-27T17:48:32.537Z,16.20
2023-04-27T17:51:25.877Z,16.10
2023-04-27T17:54:14.313Z,16.00
2023-04-27T17:57:05.482Z,15.90
2023-04-27T17:59:53.370Z,15.90
2023-04-27T18:02:41.627Z,15.80
2023-04-27T18:05:34.041Z,15.80
2023-04-27T18:08:23.533Z,15.70
2023-04-27T18:11:12.896Z,15.60
2023-04-27T18:14:04.009Z,15.60
2023-04-27T18:16:53.837Z,15.50
2023-04-27T18:19:44.588Z,15.50
2023-04-27T18:22:39.454Z,15.40
2023-04-27T18:25:36.123Z,15.30
2023-04-27T18:28:29.291Z,15.20
2023-04-27T18:31:17.278Z,15.10
2023-04-27T18:34:06.594Z,14.90
2023-04-27T18:36:54.212Z,14.80
2023-04-27T18:39:45.373Z,14.70
2023-04-27T18:42:37.176Z,14.70
2023-04-27T18:45:27.155Z,14.50
2023-04-27T18:48:19.894Z,14.40
2023-04-27T18:51:10.794Z,14.30
2023-04-27T18:54:00.833Z,14.20
2023-04-27T18:56:56.021Z,14.10
2023-04-27T18:59:45.227Z,14.00
2023-04-27T19:02:35.971Z,13.90
2023-04-27T19:05:25.094Z,13.80
2023-04-27T19:08:17.166Z,13.70
2023-04-27T19:11:04.883Z,13.60
2023-04-27T19:13:58.292Z,13.50
2023-04-27T19:16:50.973Z,13.30
2023-04-27T19:19:42.697Z,13.20
2023-04-27T19:22:34.556Z,13.10
2023-04-27T19:25:23.524Z,13.00
2023-04-27T19:28:12.128Z,12.90
2023-04-27T19:31:00.479Z,12.80
2023-04-27T19:33:55.455Z,12.80
2023-04-27T19:36:46.907Z,12.70
2023-04-27T19:39:34.893Z,12.60
2023-04-27T19:42:22.948Z,12.50
2023-04-27T19:45:12.543Z,12.40
2023-04-27T19:48:00.354Z,12.40
2023-04-27T19:50:49.524Z,12.30
2023-04-27T19:53:41.370Z,12.20
2023-04-27T20:19:07.351Z,11.70
2023-04-27T20:22:13.418Z,11.60
2023-04-27T20:25:05.430Z,11.60
2023-04-27T20:27:52.890Z,11.50
2023-04-27T20:30:40.461Z,11.40
2023-04-27T20:33:29.654Z,11.40
2023-04-27T20:36:19.098Z,11.30
2023-04-27T20:39:06.729Z,11.30
2023-04-27T20:41:56.820Z,11.20
2023-04-27T20:44:48.696Z,11.20
2023-04-27T20:47:38.496Z,11.10
2023-04-27T20:50:29.262Z,11.10
2023-04-27T20:53:17.254Z,11.00
2023-04-27T20:56:05.099Z,11.00
2023-04-27T20:58:54.503Z,10.90
2023-04-27T21:01:42.372Z,10.90
2023-04-27T21:04:30.060Z,10.80
2023-04-27T21:07:18.509Z,10.80
2023-04-27T21:10:07.259Z,10.70
2023-04-27T21:12:55.306Z,10.60
2023-04-27T21:15:44.247Z,10.60
2023-04-27T21:18:34.165Z,10.60
2023-04-27T21:21:24.800Z,10.50
2023-04-27T21:24:12.865Z,10.50
2023-04-27T21:27:00.473Z,10.40
2023-04-27T21:29:48.352Z,10.40
2023-04-27T21:32:37.301Z,10.40
2023-04-27T21:35:25.059Z,10.30
2023-04-27T21:38:12.541Z,10.30
2023-04-27T21:41:00.557Z,10.30
2023-04-27T21:43:48.361Z,10.20
2023-04-27T21:46:35.937Z,10.20
2023-04-27T21:49:24.621Z,10.20
2023-04-27T21:52:12.137Z,10.20
2023-04-27T21:55:01.147Z,10.10
2023-04-27T21:57:48.542Z,10.10
2023-04-27T22:00:36.458Z,10.10
2023-04-27T22:03:24.032Z,10.10
2023-04-27T22:06:16.287Z,10.00
2023-04-27T22:09:06.531Z,10.00
2023-04-27T22:11:55.722Z,10.00
2023-04-27T22:14:43.724Z,9.90
2023-04-27T22:17:31.595Z,9.90
2023-04-27T22:20:19.316Z,9.90
2023-04-27T22:23:09.416Z,10.00
2023-04-27T22:26:00.133Z,10.00
2023-04-27T22:28:48.038Z,9.80
2023-04-27T22:31:36.011Z,9.90
2023-04-27T22:34:23.802Z,9.90
2023-04-27T22:37:11.672Z,9.90
2023-04-27T22:40:01.634Z,9.90
2023-04-27T22:42:49.303Z,9.90
2023-04-27T22:45:38.860Z,9.80
2023-04-27T22:48:33.259Z,9.80
2023-04-27T22:51:24.820Z,9.90
2023-04-27T22:54:12.832Z,9.90
2023-04-27T22:57:02.763Z,9.80
2023-04-27T22:59:51.674Z,9.80
2023-04-27T23:02:42.033Z,9.80
2023-04-27T23:05:30.416Z,9.70
2023-04-27T23:08:19.098Z,9.80
2023-04-27T23:11:09.557Z,9.80
2023-04-27T23:13:58.786Z,9.80
2023-04-27T23:16:47.581Z,9.80
2023-04-27T23:19:35.767Z,9.70
2023-04-27T23:22:23.778Z,9.70
2023-04-27T23:25:11.685Z,9.70
2023-04-27T23:28:00.652Z,9.70
2023-04-27T23:30:56.256Z,9.70
2023-04-27T23:33:43.779Z,9.70
2023-04-27T23:36:31.290Z,9.70
2023-04-27T23:39:19.150Z,9.70
2023-04-27T23:42:07.772Z,9.70
2023-04-27T23:44:55.496Z,9.80
2023-04-27T23:47:44.757Z,9.70
2023-04-27T23:50:32.190Z,9.80
2023-04-27T23:53:22.032Z,9.70
2023-04-27T23:56:18.136Z,9.70
2023-04-27T23:59:05.725Z,9.70
